Time;durP1;ratioP1;P1;durP2;ratioP2;P2;SDS_P1;SDS_P2;PMS_P1;PMS_P2;Temp;Humidity;BMP_temperature;BMP_pressure;BME280_temperature;BME280_humidity;BME280_pressure;Samples;Min_cycle;Max_cycle;Signal;HPM_P1;HPM_P2
2024/01/27 00:01:07;;;;;;;;;68.00;46.75;;;;;;;;5100110;27;63849;-77
2024/01/27 00:03:32;;;;;;;;;57.25;46.50;;;;;;;;5102536;27;61687;-77
2024/01/27 00:05:57;;;;;;;;;62.75;46.25;;;;;;;;5102748;27;62089;-77
2024/01/27 00:08:22;;;;;;;;;62.50;47.75;;;;;;;;5102665;27;61922;-77
2024/01/27 00:10:47;;;;;;;;;63.75;48.00;;;;;;;;5101256;27;62437;-77
2024/01/27 00:13:13;;;;;;;;;52.00;45.25;;;;;;;;5101321;27;61941;-77
2024/01/27 00:15:38;;;;;;;;;64.75;47.25;;;;;;;;5101702;27;61937;-77
2024/01/27 00:18:03;;;;;;;;;64.50;48.00;;;;;;;;5102820;27;61848;-77
2024/01/27 00:20:29;;;;;;;;;57.00;45.00;;;;;;;;5101365;27;61852;-77
2024/01/27 00:22:54;;;;;;;;;65.75;49.25;;;;;;;;5102421;27;61658;-77
2024/01/27 00:25:19;;;;;;;;;60.33;50.33;;;;;;;;5100667;27;61720;-77
2024/01/27 00:27:44;;;;;;;;;63.25;47.75;;;;;;;;5101935;27;61889;-77
2024/01/27 00:30:11;;;;;;;;;59.67;47.67;;;;;;;;5101089;27;61923;-77
2024/01/27 00:32:36;;;;;;;;;50.75;41.75;;;;;;;;5101973;27;62188;-77
2024/01/27 00:35:02;;;;;;;;;67.50;48.25;;;;;;;;5102237;27;62948;-77
2024/01/27 00:37:28;;;;;;;;;69.25;49.50;;;;;;;;5102036;27;61821;-77
2024/01/27 00:39:53;;;;;;;;;61.25;49.75;;;;;;;;5101165;27;61863;-77
2024/01/27 00:42:23;;;;;;;;;72.00;52.25;;;;;;;;5101705;27;61926;-77
2024/01/27 00:44:49;;;;;;;;;68.50;52.75;;;;;;;;5105383;27;61933;-77
2024/01/27 00:47:14;;;;;;;;;77.67;57.67;;;;;;;;5105794;27;62195;-77
2024/01/27 00:49:39;;;;;;;;;72.33;56.33;;;;;;;;5086481;27;61835;-77
2024/01/27 00:52:04;;;;;;;;;76.67;57.00;;;;;;;;5083779;28;62356;-77
2024/01/27 00:54:30;;;;;;;;;68.33;53.67;;;;;;;;5084762;27;61872;-77
2024/01/27 00:56:55;;;;;;;;;75.67;55.33;;;;;;;;5085081;27;61732;-77
2024/01/27 00:59:20;;;;;;;;;62.67;49.00;;;;;;;;5084336;27;61911;-77
2024/01/27 01:01:45;;;;;;;;;72.00;51.00;;;;;;;;5096816;27;61678;-77
2024/01/27 01:04:11;;;;;;;;;67.67;52.00;;;;;;;;5105506;27;62318;-77
2024/01/27 01:06:38;;;;;;;;;62.00;50.33;;;;;;;;5105508;27;62179;-77
2024/01/27 01:09:04;;;;;;;;;67.67;49.00;;;;;;;;5089884;27;63801;-77
2024/01/27 01:11:29;;;;;;;;;70.33;52.00;;;;;;;;5084779;27;61869;-77
2024/01/27 01:13:54;;;;;;;;;60.00;50.33;;;;;;;;5083295;28;61947;-77
2024/01/27 01:16:20;;;;;;;;;59.50;49.00;;;;;;;;5083635;28;61935;-77
2024/01/27 01:18:45;;;;;;;;;63.50;51.25;;;;;;;;5101253;27;62329;-77
2024/01/27 01:21:10;;;;;;;;;64.00;51.67;;;;;;;;5103800;27;62233;-77
2024/01/27 01:23:35;;;;;;;;;66.50;52.25;;;;;;;;5103046;27;62275;-77
2024/01/27 01:26:01;;;;;;;;;71.00;56.00;;;;;;;;5103216;27;61831;-77
2024/01/27 01:28:26;;;;;;;;;64.33;51.67;;;;;;;;5104509;27;62911;-77
2024/01/27 01:30:51;;;;;;;;;62.75;49.50;;;;;;;;5104280;27;61744;-77
2024/01/27 01:33:16;;;;;;;;;67.00;53.25;;;;;;;;5104769;27;61980;-77
2024/01/27 01:35:42;;;;;;;;;61.00;49.00;;;;;;;;5105143;27;61914;-77
2024/01/27 01:38:07;;;;;;;;;58.33;43.00;;;;;;;;5101157;27;62721;-77
2024/01/27 01:40:32;;;;;;;;;65.75;51.00;;;;;;;;5104880;27;62037;-77
2024/01/27 01:42:58;;;;;;;;;61.25;48.75;;;;;;;;5104362;27;61717;-77
2024/01/27 01:45:23;;;;;;;;;61.00;49.00;;;;;;;;5103590;27;62133;-77
2024/01/27 01:47:49;;;;;;;;;67.25;47.50;;;;;;;;5104073;27;62100;-77
2024/01/27 01:50:14;;;;;;;;;61.75;46.50;;;;;;;;5104741;27;61902;-77
2024/01/27 01:52:39;;;;;;;;;59.00;48.00;;;;;;;;5104405;27;61860;-77
2024/01/27 01:55:05;;;;;;;;;65.00;47.00;;;;;;;;5102368;27;61809;-77
2024/01/27 01:57:30;;;;;;;;;63.00;47.75;;;;;;;;5103779;27;62006;-77
2024/01/27 01:59:55;;;;;;;;;53.00;46.67;;;;;;;;5103759;27;61758;-77
2024/01/27 02:02:21;;;;;;;;;66.00;48.33;;;;;;;;5104341;27;61959;-77
2024/01/27 02:04:46;;;;;;;;;60.33;47.67;;;;;;;;5104659;27;61879;-77
2024/01/27 02:07:11;;;;;;;;;65.75;48.00;;;;;;;;5101736;27;64016;-77
2024/01/27 02:09:36;;;;;;;;;67.33;51.33;;;;;;;;5104265;27;62172;-77
2024/01/27 02:12:02;;;;;;;;;66.33;50.67;;;;;;;;5102363;27;61835;-77
2024/01/27 02:14:27;;;;;;;;;67.33;49.67;;;;;;;;5104802;27;61747;-77
2024/01/27 02:16:53;;;;;;;;;65.00;48.33;;;;;;;;5103601;27;62050;-77
2024/01/27 02:19:18;;;;;;;;;67.67;51.33;;;;;;;;5102772;27;62123;-77
2024/01/27 02:21:43;;;;;;;;;65.75;49.75;;;;;;;;5104104;27;61880;-77
2024/01/27 02:24:10;;;;;;;;;60.00;47.25;;;;;;;;5104204;27;62181;-77
2024/01/27 02:26:35;;;;;;;;;53.67;46.67;;;;;;;;5101875;27;64064;-77
2024/01/27 02:29:00;;;;;;;;;59.00;46.75;;;;;;;;5103911;27;62026;-77
2024/01/27 02:31:25;;;;;;;;;59.33;49.00;;;;;;;;5103613;27;61782;-77
2024/01/27 02:33:50;;;;;;;;;66.33;50.33;;;;;;;;5084734;27;61874;-77
2024/01/27 02:36:16;;;;;;;;;59.75;47.00;;;;;;;;5080901;28;63913;-77
2024/01/27 02:38:41;;;;;;;;;61.50;46.75;;;;;;;;5096409;27;61858;-77
2024/01/27 02:41:06;;;;;;;;;63.67;47.00;;;;;;;;5103393;27;61952;-76
2024/01/27 02:43:31;;;;;;;;;60.25;47.25;;;;;;;;5102757;27;61764;-77
2024/01/27 02:45:56;;;;;;;;;63.25;49.50;;;;;;;;5103267;27;61804;-77
2024/01/27 02:48:22;;;;;;;;;63.00;49.67;;;;;;;;5103563;27;61712;-77
2024/01/27 02:50:47;;;;;;;;;64.75;46.75;;;;;;;;5103224;27;62141;-77
2024/01/27 02:53:12;;;;;;;;;59.50;47.00;;;;;;;;5102156;27;62349;-77
2024/01/27 02:55:37;;;;;;;;;61.00;47.50;;;;;;;;5101615;27;63556;-77
2024/01/27 02:58:02;;;;;;;;;58.33;45.33;;;;;;;;5103304;27;61932;-77
2024/01/27 03:00:28;;;;;;;;;54.75;45.00;;;;;;;;5102820;27;61653;-77
2024/01/27 03:02:54;;;;;;;;;45.75;40.00;;;;;;;;5103857;27;61693;-77
2024/01/27 03:05:19;;;;;;;;;48.00;40.50;;;;;;;;5102218;27;62418;-77
2024/01/27 03:07:45;;;;;;;;;53.25;42.75;;;;;;;;5101739;27;61968;-77
2024/01/27 03:10:11;;;;;;;;;51.50;41.75;;;;;;;;5082944;28;61742;-77
2024/01/27 03:12:36;;;;;;;;;47.25;40.75;;;;;;;;5099567;27;61966;-77
2024/01/27 03:15:01;;;;;;;;;51.00;44.50;;;;;;;;5102973;27;62749;-77
2024/01/27 03:17:26;;;;;;;;;60.00;44.75;;;;;;;;5102809;27;61864;-77
2024/01/27 03:19:51;;;;;;;;;52.75;41.25;;;;;;;;5103134;27;62494;-77
2024/01/27 03:22:17;;;;;;;;;49.25;42.00;;;;;;;;5103582;27;62164;-77
2024/01/27 03:24:42;;;;;;;;;45.00;40.50;;;;;;;;5102506;27;62034;-77
2024/01/27 03:27:07;;;;;;;;;42.50;37.25;;;;;;;;5101474;27;62027;-77
2024/01/27 03:29:32;;;;;;;;;48.75;41.00;;;;;;;;5102540;27;61827;-76
2024/01/27 03:31:58;;;;;;;;;40.50;39.75;;;;;;;;5103272;27;62221;-77
2024/01/27 03:34:24;;;;;;;;;43.00;37.75;;;;;;;;5101960;27;62019;-77
2024/01/27 03:36:51;;;;;;;;;45.25;39.25;;;;;;;;5092110;27;61799;-77
2024/01/27 03:39:16;;;;;;;;;55.50;39.75;;;;;;;;5100271;27;62015;-77
2024/01/27 03:41:41;;;;;;;;;53.75;43.25;;;;;;;;5102879;27;61816;-77
2024/01/27 03:44:06;;;;;;;;;49.25;38.50;;;;;;;;5102546;27;63188;-77
2024/01/27 03:46:32;;;;;;;;;32.75;29.50;;;;;;;;5102415;27;61890;-77
2024/01/27 03:48:57;;;;;;;;;40.75;35.00;;;;;;;;5102639;27;62345;-76
2024/01/27 03:51:23;;;;;;;;;48.00;39.00;;;;;;;;5107838;27;62102;-77
2024/01/27 03:53:48;;;;;;;;;50.50;37.50;;;;;;;;5122740;27;62278;-77
2024/01/27 03:56:13;;;;;;;;;47.25;35.75;;;;;;;;5123156;27;62214;-77
2024/01/27 03:58:38;;;;;;;;;48.00;38.50;;;;;;;;5123016;27;62525;-77
2024/01/27 04:01:04;;;;;;;;;49.00;39.50;;;;;;;;5123341;27;62105;-77
2024/01/27 04:03:29;;;;;;;;;49.00;37.75;;;;;;;;5120887;27;63339;-77
2024/01/27 04:05:55;;;;;;;;;15.75;8.00;;;;;;;;5120421;27;62007;-77
2024/01/27 04:08:20;;;;;;;;;47.75;34.25;;;;;;;;5102780;27;61868;-77
2024/01/27 04:10:45;;;;;;;;;42.75;36.75;;;;;;;;5101258;27;61870;-77
2024/01/27 04:13:10;;;;;;;;;43.00;34.25;;;;;;;;5087956;27;62420;-77
2024/01/27 04:15:38;;;;;;;;;48.75;32.25;;;;;;;;5080444;28;61785;-77
2024/01/27 04:18:03;;;;;;;;;41.50;36.00;;;;;;;;5082543;28;62124;-77
2024/01/27 04:20:29;;;;;;;;;53.75;42.25;;;;;;;;5113273;27;61910;-77
2024/01/27 04:22:54;;;;;;;;;44.75;37.25;;;;;;;;5104043;27;63708;-77
2024/01/27 04:25:19;;;;;;;;;57.25;37.00;;;;;;;;5106164;27;61832;-77
2024/01/27 04:27:44;;;;;;;;;45.50;40.75;;;;;;;;5104158;27;61913;-77
2024/01/27 04:30:11;;;;;;;;;42.00;39.75;;;;;;;;5104303;27;62150;-76
2024/01/27 04:32:36;;;;;;;;;58.50;41.75;;;;;;;;5104478;27;62664;-77
2024/01/27 04:35:01;;;;;;;;;13.00;8.25;;;;;;;;5106002;27;61778;-77
2024/01/27 04:37:28;;;;;;;;;46.00;37.25;;;;;;;;5105867;27;61810;-77
2024/01/27 04:39:53;;;;;;;;;41.75;37.75;;;;;;;;5105694;27;61718;-77
2024/01/27 04:42:18;;;;;;;;;53.50;41.25;;;;;;;;5103378;27;63792;-77
2024/01/27 04:44:44;;;;;;;;;43.75;35.75;;;;;;;;5105694;27;61678;-77
2024/01/27 04:47:09;;;;;;;;;45.00;37.25;;;;;;;;5104029;27;61743;-77
2024/01/27 04:49:34;;;;;;;;;54.00;40.25;;;;;;;;5104146;27;62177;-77
2024/01/27 04:51:59;;;;;;;;;48.25;36.50;;;;;;;;5105087;27;61953;-77
2024/01/27 04:54:25;;;;;;;;;45.50;38.50;;;;;;;;5122998;27;61881;-77
2024/01/27 04:56:50;;;;;;;;;52.25;41.00;;;;;;;;5124499;27;62223;-77
2024/01/27 04:59:15;;;;;;;;;52.25;40.25;;;;;;;;5126178;27;61981;-77
2024/01/27 05:01:43;;;;;;;;;49.00;39.33;;;;;;;;5122460;27;64880;-77
2024/01/27 05:04:09;;;;;;;;;55.50;40.75;;;;;;;;5105285;27;61826;-76
2024/01/27 05:06:34;;;;;;;;;56.67;43.33;;;;;;;;5105450;27;62011;-77
2024/01/27 05:08:59;;;;;;;;;62.50;44.25;;;;;;;;5105235;27;61736;-77
2024/01/27 05:11:29;;;;;;;;;49.75;43.75;;;;;;;;5102644;27;64030;-77
2024/01/27 05:13:54;;;;;;;;;49.33;41.00;;;;;;;;5104900;27;61888;-77
2024/01/27 05:16:20;;;;;;;;;48.50;39.75;;;;;;;;5103693;27;61757;-77
2024/01/27 05:18:45;;;;;;;;;63.00;48.00;;;;;;;;5105276;27;62059;-77
2024/01/27 05:21:10;;;;;;;;;50.67;33.33;;;;;;;;5104643;27;61770;-77
2024/01/27 05:23:36;;;;;;;;;63.33;46.67;;;;;;;;5105251;27;62109;-77
2024/01/27 05:26:01;;;;;;;;;64.00;50.67;;;;;;;;5104466;27;61924;-77
2024/01/27 05:28:26;;;;;;;;;60.67;43.67;;;;;;;;5105193;27;61891;-77
2024/01/27 05:30:52;;;;;;;;;57.75;45.50;;;;;;;;5101501;27;61973;-77
2024/01/27 05:33:17;;;;;;;;;63.33;49.33;;;;;;;;5104611;27;62039;-77
2024/01/27 05:35:42;;;;;;;;;55.67;45.67;;;;;;;;5105240;27;61740;-77
2024/01/27 05:38:08;;;;;;;;;67.33;49.67;;;;;;;;5102528;27;61727;-77
2024/01/27 05:40:33;;;;;;;;;60.00;43.00;;;;;;;;5103820;27;61884;-77
2024/01/27 05:42:58;;;;;;;;;70.33;53.00;;;;;;;;5104575;27;61752;-77
2024/01/27 05:45:23;;;;;;;;;73.00;47.33;;;;;;;;5104541;27;62277;-77
2024/01/27 05:47:49;;;;;;;;;61.33;46.67;;;;;;;;5089751;27;61798;-77
2024/01/27 05:50:14;;;;;;;;;64.67;48.67;;;;;;;;5124615;27;61936;-77
2024/01/27 05:52:39;;;;;;;;;65.33;51.33;;;;;;;;5123960;27;61985;-77
2024/01/27 05:55:06;;;;;;;;;62.67;50.00;;;;;;;;5103694;27;61753;-76
2024/01/27 05:57:31;;;;;;;;;71.67;53.67;;;;;;;;5104286;27;61837;-77
2024/01/27 05:59:57;;;;;;;;;64.00;47.00;;;;;;;;5102958;27;62058;-76
2024/01/27 06:02:23;;;;;;;;;67.00;52.67;;;;;;;;5098070;27;61932;-77
2024/01/27 06:04:48;;;;;;;;;67.67;50.33;;;;;;;;5084172;28;61755;-77
2024/01/27 06:07:13;;;;;;;;;64.67;51.33;;;;;;;;5084017;27;61835;-77
2024/01/27 06:09:38;;;;;;;;;65.33;51.00;;;;;;;;5086179;27;61844;-76
2024/01/27 06:12:04;;;;;;;;;62.67;49.00;;;;;;;;5103603;27;61964;-77
2024/01/27 06:14:29;;;;;;;;;67.00;51.67;;;;;;;;5104087;27;62054;-77
2024/01/27 06:16:55;;;;;;;;;68.67;53.00;;;;;;;;5104423;27;61709;-77
2024/01/27 06:19:20;;;;;;;;;54.33;42.33;;;;;;;;5103271;27;61855;-77
2024/01/27 06:21:45;;;;;;;;;59.00;46.67;;;;;;;;5091669;27;61742;-77
2024/01/27 06:24:10;;;;;;;;;63.33;47.67;;;;;;;;5102722;27;61939;-76
2024/01/27 06:26:35;;;;;;;;;66.00;50.33;;;;;;;;5102519;27;62028;-77
2024/01/27 06:29:02;;;;;;;;;70.00;51.33;;;;;;;;5103087;27;62945;-76
2024/01/27 06:31:27;;;;;;;;;64.00;46.00;;;;;;;;5101944;27;61930;-77
2024/01/27 06:33:52;;;;;;;;;65.00;52.67;;;;;;;;5084390;27;61750;-77
2024/01/27 06:36:18;;;;;;;;;57.67;45.00;;;;;;;;5083447;27;62109;-77
2024/01/27 06:38:43;;;;;;;;;66.00;52.00;;;;;;;;5098393;27;65047;-77
2024/01/27 06:41:09;;;;;;;;;59.67;42.67;;;;;;;;5103064;27;62099;-77
2024/01/27 06:43:34;;;;;;;;;68.00;51.33;;;;;;;;5102306;27;61968;-77
2024/01/27 06:46:00;;;;;;;;;63.00;49.33;;;;;;;;5102645;27;61823;-77
2024/01/27 06:48:26;;;;;;;;;61.00;45.33;;;;;;;;5102723;27;63045;-76
2024/01/27 06:50:51;;;;;;;;;58.67;47.33;;;;;;;;5103848;27;61912;-77
2024/01/27 06:53:18;;;;;;;;;48.67;42.67;;;;;;;;5102130;27;61862;-76
2024/01/27 06:55:43;;;;;;;;;68.00;51.33;;;;;;;;5103886;27;61765;-77
2024/01/27 06:58:08;;;;;;;;;63.67;49.67;;;;;;;;5102285;27;62042;-76
2024/01/27 07:00:33;;;;;;;;;64.00;47.33;;;;;;;;5102847;27;61819;-77
2024/01/27 07:02:59;;;;;;;;;70.33;51.33;;;;;;;;5103582;27;61883;-77
2024/01/27 07:05:24;;;;;;;;;71.67;51.33;;;;;;;;5102108;27;62258;-77
2024/01/27 07:07:49;;;;;;;;;61.33;51.33;;;;;;;;5101414;27;65036;-77
2024/01/27 07:10:15;;;;;;;;;63.67;45.33;;;;;;;;5103272;27;61657;-77
2024/01/27 07:12:40;;;;;;;;;64.00;48.00;;;;;;;;5102668;27;61887;-77
2024/01/27 07:15:05;;;;;;;;;60.00;49.33;;;;;;;;5103606;27;61731;-76
2024/01/27 07:17:31;;;;;;;;;57.67;45.00;;;;;;;;5102135;27;62551;-76
2024/01/27 07:19:56;;;;;;;;;55.00;45.00;;;;;;;;5101653;27;61906;-77
2024/01/27 07:22:22;;;;;;;;;59.00;44.67;;;;;;;;5101802;27;61755;-77
2024/01/27 07:24:51;;;;;;;;;52.00;39.50;;;;;;;;5103325;27;61784;-77
2024/01/27 07:27:16;;;;;;;;;52.00;42.00;;;;;;;;5101929;27;61850;-76
2024/01/27 07:29:41;;;;;;;;;55.67;44.00;;;;;;;;5101975;27;62423;-75
2024/01/27 07:32:08;;;;;;;;;49.00;41.00;;;;;;;;5103079;27;61774;-77
2024/01/27 07:34:34;;;;;;;;;61.33;47.33;;;;;;;;5102971;27;62116;-77
2024/01/27 07:36:59;;;;;;;;;58.67;46.33;;;;;;;;5102157;27;61869;-78
2024/01/27 07:39:24;;;;;;;;;62.00;43.67;;;;;;;;5109252;27;61729;-78
2024/01/27 07:41:49;;;;;;;;;49.67;41.00;;;;;;;;5122487;27;61813;-77
2024/01/27 07:44:15;;;;;;;;;46.00;39.67;;;;;;;;5122566;27;61823;-78
2024/01/27 07:46:41;;;;;;;;;41.50;35.75;;;;;;;;5104470;27;61804;-77
2024/01/27 07:49:06;;;;;;;;;38.00;34.50;;;;;;;;5102619;27;61728;-77
2024/01/27 07:51:32;;;;;;;;;45.50;42.00;;;;;;;;5101004;27;62255;-77
2024/01/27 07:53:57;;;;;;;;;33.50;33.25;;;;;;;;5102099;27;62321;-78
2024/01/27 07:56:23;;;;;;;;;44.00;38.67;;;;;;;;5100921;27;62774;-77
2024/01/27 07:58:48;;;;;;;;;45.50;37.00;;;;;;;;5102558;27;61811;-78
2024/01/27 08:01:17;;;;;;;;;37.25;35.75;;;;;;;;5100601;27;62384;-77
2024/01/27 08:03:42;;;;;;;;;42.75;35.25;;;;;;;;5096401;27;62134;-77
2024/01/27 08:06:11;;;;;;;;;48.75;42.50;;;;;;;;5099958;27;64736;-78
2024/01/27 08:08:36;;;;;;;;;37.75;35.50;;;;;;;;5100430;27;62045;-77
2024/01/27 08:11:01;;;;;;;;;40.50;37.00;;;;;;;;5101775;27;62153;-75
2024/01/27 08:13:27;;;;;;;;;46.75;40.50;;;;;;;;5101930;27;62123;-76
2024/01/27 08:15:52;;;;;;;;;53.50;40.25;;;;;;;;5101501;27;61808;-76
2024/01/27 08:18:17;;;;;;;;;38.25;34.25;;;;;;;;5102573;27;61711;-76
2024/01/27 08:20:42;;;;;;;;;52.00;42.33;;;;;;;;5102294;27;61741;-76
2024/01/27 08:23:09;;;;;;;;;42.33;37.33;;;;;;;;5101208;27;61918;-76
2024/01/27 08:25:34;;;;;;;;;49.00;40.25;;;;;;;;5101361;27;61701;-75
2024/01/27 08:27:59;;;;;;;;;44.33;36.33;;;;;;;;5101530;27;62050;-76
2024/01/27 08:30:24;;;;;;;;;46.00;38.75;;;;;;;;5101803;27;61753;-76
2024/01/27 08:32:49;;;;;;;;;49.00;42.00;;;;;;;;5102018;27;62280;-76
2024/01/27 08:35:15;;;;;;;;;53.00;45.67;;;;;;;;5101173;27;61872;-75
2024/01/27 08:37:40;;;;;;;;;59.25;43.50;;;;;;;;5101911;27;62188;-76
2024/01/27 08:40:05;;;;;;;;;61.33;46.33;;;;;;;;5101751;27;61777;-76
2024/01/27 08:42:31;;;;;;;;;49.00;41.67;;;;;;;;5101997;27;61866;-76
2024/01/27 08:44:56;;;;;;;;;53.00;40.67;;;;;;;;5101222;27;61849;-76
2024/01/27 08:47:21;;;;;;;;;48.75;43.25;;;;;;;;5101573;27;62201;-77
2024/01/27 08:49:47;;;;;;;;;53.33;46.00;;;;;;;;5100483;27;61776;-77
2024/01/27 08:52:12;;;;;;;;;56.33;44.00;;;;;;;;5102419;27;61967;-78
2024/01/27 08:54:37;;;;;;;;;55.33;42.67;;;;;;;;5100982;27;62964;-78
2024/01/27 08:57:02;;;;;;;;;52.67;45.00;;;;;;;;5095710;27;62146;-78
2024/01/27 08:59:28;;;;;;;;;60.67;51.00;;;;;;;;5100387;27;61851;-76
2024/01/27 09:01:53;;;;;;;;;57.67;45.67;;;;;;;;5101671;27;61810;-77
2024/01/27 09:04:18;;;;;;;;;65.33;45.00;;;;;;;;5102318;27;63126;-77
2024/01/27 09:06:43;;;;;;;;;58.25;43.75;;;;;;;;5105236;27;62294;-77
2024/01/27 09:09:08;;;;;;;;;52.75;42.75;;;;;;;;5103053;27;61712;-77
2024/01/27 09:11:34;;;;;;;;;66.25;47.00;;;;;;;;5104096;27;61731;-77
2024/01/27 09:13:59;;;;;;;;;53.75;43.00;;;;;;;;5103136;27;63610;-77
2024/01/27 09:16:25;;;;;;;;;60.67;44.00;;;;;;;;5106409;27;62169;-77
2024/01/27 09:18:50;;;;;;;;;55.67;44.00;;;;;;;;5106818;27;61699;-77
2024/01/27 09:21:20;;;;;;;;;55.67;40.67;;;;;;;;5106194;27;62004;-75
2024/01/27 09:23:45;;;;;;;;;55.00;45.00;;;;;;;;5105545;27;61889;-75
2024/01/27 09:26:12;;;;;;;;;59.67;46.00;;;;;;;;5103386;27;62140;-75
2024/01/27 09:28:37;;;;;;;;;53.33;44.33;;;;;;;;5103781;27;61759;-75
2024/01/27 09:31:03;;;;;;;;;52.33;41.67;;;;;;;;5103769;27;62276;-75
2024/01/27 09:33:29;;;;;;;;;60.00;44.25;;;;;;;;5103781;27;62257;-75
2024/01/27 09:35:54;;;;;;;;;50.25;42.25;;;;;;;;5102590;27;63142;-75
2024/01/27 09:38:20;;;;;;;;;48.75;44.00;;;;;;;;5102467;27;61954;-76
2024/01/27 09:40:46;;;;;;;;;61.00;45.25;;;;;;;;5104558;27;61827;-75
2024/01/27 09:43:13;;;;;;;;;53.25;43.50;;;;;;;;5102635;27;61973;-75
2024/01/27 09:45:38;;;;;;;;;43.25;40.00;;;;;;;;5102558;27;62303;-75
2024/01/27 09:48:05;;;;;;;;;53.00;42.25;;;;;;;;5102717;27;61732;-75
2024/01/27 09:50:30;;;;;;;;;51.00;43.75;;;;;;;;5103122;27;61996;-75
2024/01/27 09:52:55;;;;;;;;;56.33;45.33;;;;;;;;5103352;27;61898;-76
2024/01/27 09:55:21;;;;;;;;;58.50;45.50;;;;;;;;5102251;27;62153;-76
2024/01/27 09:57:46;;;;;;;;;40.25;34.50;;;;;;;;5103167;27;62282;-75
2024/01/27 10:00:12;;;;;;;;;51.00;42.00;;;;;;;;5103182;27;61871;-76
2024/01/27 10:02:41;;;;;;;;;59.25;43.25;;;;;;;;5102835;27;61943;-76
2024/01/27 10:05:08;;;;;;;;;52.00;39.00;;;;;;;;5100810;27;61725;-76
2024/01/27 10:07:33;;;;;;;;;51.00;39.50;;;;;;;;5103183;27;61872;-76
2024/01/27 10:09:58;;;;;;;;;45.00;41.00;;;;;;;;5101514;27;61926;-76
2024/01/27 10:12:25;;;;;;;;;54.25;39.25;;;;;;;;5101998;27;63156;-75
2024/01/27 10:14:52;;;;;;;;;54.75;43.00;;;;;;;;5103205;27;61910;-75
2024/01/27 10:17:22;;;;;;;;;54.00;38.50;;;;;;;;5101194;27;62038;-76
2024/01/27 10:19:47;;;;;;;;;47.50;40.50;;;;;;;;5102293;27;61991;-76
2024/01/27 10:22:12;;;;;;;;;41.50;37.50;;;;;;;;5103354;27;62804;-75
2024/01/27 10:24:38;;;;;;;;;54.75;42.00;;;;;;;;5103818;27;62090;-76
2024/01/27 10:27:03;;;;;;;;;56.75;42.00;;;;;;;;5103414;27;61962;-75
2024/01/27 10:29:29;;;;;;;;;41.75;36.75;;;;;;;;5099441;27;62017;-75
2024/01/27 10:31:54;;;;;;;;;40.00;31.75;;;;;;;;5103712;27;61842;-75
2024/01/27 10:34:20;;;;;;;;;44.75;38.75;;;;;;;;5108260;27;62064;-75
2024/01/27 10:36:45;;;;;;;;;49.00;41.00;;;;;;;;5101631;27;61802;-74
2024/01/27 10:39:18;;;;;;;;;49.25;38.00;;;;;;;;5105153;27;62062;-75
2024/01/27 10:41:45;;;;;;;;;36.50;35.75;;;;;;;;5101870;27;64866;-74
2024/01/27 10:44:13;;;;;;;;;48.25;38.50;;;;;;;;5105866;27;62237;-76
2024/01/27 10:46:39;;;;;;;;;49.00;38.00;;;;;;;;5109045;27;61856;-76
2024/01/27 10:49:05;;;;;;;;;45.50;38.00;;;;;;;;5105854;27;62551;-75
2024/01/27 10:51:32;;;;;;;;;44.25;37.50;;;;;;;;5111864;27;61887;-76
2024/01/27 10:54:00;;;;;;;;;47.50;39.75;;;;;;;;5110491;27;61824;-76
2024/01/27 10:56:27;;;;;;;;;42.25;35.75;;;;;;;;5102294;27;61747;-79
2024/01/27 10:58:52;;;;;;;;;49.75;38.50;;;;;;;;5101143;27;62177;-79
2024/01/27 11:01:19;;;;;;;;;35.25;32.25;;;;;;;;5100177;27;63543;-78
2024/01/27 11:03:45;;;;;;;;;41.50;34.50;;;;;;;;5100741;27;61958;-79
2024/01/27 11:06:11;;;;;;;;;39.75;33.00;;;;;;;;5103629;27;62289;-79
2024/01/27 11:08:38;;;;;;;;;36.75;34.50;;;;;;;;5115068;27;62337;-78
2024/01/27 11:11:03;;;;;;;;;45.00;35.75;;;;;;;;5093609;27;62978;-76
2024/01/27 11:13:30;;;;;;;;;45.75;36.00;;;;;;;;5099980;27;62273;-76
2024/01/27 11:15:56;;;;;;;;;56.00;37.00;;;;;;;;5101229;27;62128;-79
2024/01/27 11:18:22;;;;;;;;;38.00;36.75;;;;;;;;5100995;27;62074;-79
2024/01/27 11:20:47;;;;;;;;;38.25;30.00;;;;;;;;5099101;27;63361;-80
2024/01/27 11:23:14;;;;;;;;;33.50;30.75;;;;;;;;5099389;27;61901;-76
2024/01/27 11:25:39;;;;;;;;;38.50;31.75;;;;;;;;5101479;27;61764;-77
2024/01/27 11:28:16;;;;;;;;;21.00;19.75;;;;;;;;5099729;27;62399;-79
2024/01/27 11:30:46;;;;;;;;;34.75;29.75;;;;;;;;5098802;27;63667;-79
2024/01/27 11:33:12;;;;;;;;;25.25;20.75;;;;;;;;5099920;27;62142;-76
2024/01/27 11:35:37;;;;;;;;;12.25;7.25;;;;;;;;5099814;27;62230;-76
2024/01/27 11:38:02;;;;;;;;;5.50;4.00;;;;;;;;5098946;27;62069;-79
2024/01/27 11:40:28;;;;;;;;;11.00;4.50;;;;;;;;5098579;27;63715;-79
2024/01/27 11:42:57;;;;;;;;;9.00;3.50;;;;;;;;5099950;27;62164;-80
2024/01/27 11:45:23;;;;;;;;;6.00;3.50;;;;;;;;5099376;27;61930;-77
2024/01/27 11:47:48;;;;;;;;;7.25;4.00;;;;;;;;5098727;27;62190;-77
2024/01/27 11:50:14;;;;;;;;;8.50;7.25;;;;;;;;5089425;27;62017;-79
2024/01/27 11:52:39;;;;;;;;;5.00;3.00;;;;;;;;5097890;27;61744;-76
2024/01/27 11:55:04;;;;;;;;;7.50;4.00;;;;;;;;5103619;27;62096;-76
2024/01/27 11:57:29;;;;;;;;;4.25;3.00;;;;;;;;5104798;27;61931;-76
2024/01/27 11:59:55;;;;;;;;;7.00;6.00;;;;;;;;5097199;27;63604;-79
2024/01/27 12:02:20;;;;;;;;;6.00;5.50;;;;;;;;5104437;27;61823;-78
2024/01/27 12:04:47;;;;;;;;;6.50;6.50;;;;;;;;5100535;27;61816;-78
2024/01/27 12:07:12;;;;;;;;;7.50;4.00;;;;;;;;5100866;27;62375;-78
2024/01/27 12:09:37;;;;;;;;;5.25;3.00;;;;;;;;5112329;27;62492;-78
2024/01/27 12:12:03;;;;;;;;;4.00;2.00;;;;;;;;5103674;27;62094;-77
2024/01/27 12:14:42;;;;;;;;;6.25;4.00;;;;;;;;5102709;27;61744;-77
2024/01/27 12:17:08;;;;;;;;;7.25;7.25;;;;;;;;5116796;27;62053;-77
2024/01/27 12:19:33;;;;;;;;;13.75;8.00;;;;;;;;5090837;27;61987;-78
2024/01/27 12:21:58;;;;;;;;;8.75;6.50;;;;;;;;5111190;27;62099;-78
2024/01/27 12:24:23;;;;;;;;;8.25;7.50;;;;;;;;5112160;27;62232;-77
2024/01/27 12:26:49;;;;;;;;;14.00;12.75;;;;;;;;5115581;27;61831;-78
2024/01/27 12:29:14;;;;;;;;;4.25;4.25;;;;;;;;5106037;27;61733;-78
2024/01/27 12:31:39;;;;;;;;;9.50;7.75;;;;;;;;5104863;27;61794;-78
2024/01/27 12:34:05;;;;;;;;;9.50;7.75;;;;;;;;5119484;27;62063;-78
2024/01/27 12:36:30;;;;;;;;;7.00;5.75;;;;;;;;5111078;27;61991;-78
2024/01/27 12:38:56;;;;;;;;;7.50;7.50;;;;;;;;5101360;27;62179;-75
2024/01/27 12:41:22;;;;;;;;;7.00;5.25;;;;;;;;5102440;27;61865;-76
2024/01/27 12:43:47;;;;;;;;;7.00;6.00;;;;;;;;5105190;27;61761;-75
2024/01/27 12:46:14;;;;;;;;;6.50;5.50;;;;;;;;5105457;27;61839;-75
2024/01/27 12:48:39;;;;;;;;;10.25;9.00;;;;;;;;5106452;27;63691;-75
2024/01/27 12:51:04;;;;;;;;;8.00;7.50;;;;;;;;5109531;27;61994;-76
2024/01/27 12:53:30;;;;;;;;;10.50;9.00;;;;;;;;5107874;27;61915;-81
2024/01/27 12:55:58;;;;;;;;;13.50;9.25;;;;;;;;5107432;27;61865;-80
2024/01/27 12:58:23;;;;;;;;;14.25;10.50;;;;;;;;5108100;27;62435;-80
2024/01/27 13:00:49;;;;;;;;;12.75;10.50;;;;;;;;5107024;27;61902;-76
2024/01/27 13:03:14;;;;;;;;;15.50;9.00;;;;;;;;5111593;27;62211;-78
2024/01/27 13:05:39;;;;;;;;;12.00;9.25;;;;;;;;5114703;27;61807;-76
2024/01/27 13:08:05;;;;;;;;;12.50;9.00;;;;;;;;5113368;27;61780;-78
2024/01/27 13:10:30;;;;;;;;;11.00;7.00;;;;;;;;5116010;27;62082;-78
2024/01/27 13:12:58;;;;;;;;;5.25;5.25;;;;;;;;5112295;27;62159;-78
2024/01/27 13:15:25;;;;;;;;;7.00;4.50;;;;;;;;5114917;27;61996;-78
2024/01/27 13:17:50;;;;;;;;;8.50;4.00;;;;;;;;5108583;27;62646;-79
2024/01/27 13:20:17;;;;;;;;;4.50;4.50;;;;;;;;5102343;27;61866;-80
2024/01/27 13:22:42;;;;;;;;;14.50;9.25;;;;;;;;5104362;27;61792;-78
2024/01/27 13:25:07;;;;;;;;;9.50;7.75;;;;;;;;5105014;27;61766;-78
2024/01/27 13:27:34;;;;;;;;;5.25;5.25;;;;;;;;5103741;27;61773;-77
2024/01/27 13:29:59;;;;;;;;;9.50;5.00;;;;;;;;5102525;27;61929;-78
2024/01/27 13:32:26;;;;;;;;;4.50;1.75;;;;;;;;5102744;27;62028;-78
2024/01/27 13:34:51;;;;;;;;;8.00;6.00;;;;;;;;5102459;27;61975;-78
2024/01/27 13:37:16;;;;;;;;;10.50;8.75;;;;;;;;5103176;27;63770;-77
2024/01/27 13:39:42;;;;;;;;;9.00;4.50;;;;;;;;5121936;27;61783;-77
2024/01/27 13:42:07;;;;;;;;;5.00;5.00;;;;;;;;5103385;27;61895;-77
2024/01/27 13:44:35;;;;;;;;;6.25;5.00;;;;;;;;5107855;27;62158;-77
2024/01/27 13:47:01;;;;;;;;;5.00;4.75;;;;;;;;5111453;27;61814;-77
2024/01/27 13:49:26;;;;;;;;;4.25;4.00;;;;;;;;5112322;27;62010;-76
2024/01/27 13:51:54;;;;;;;;;6.25;4.25;;;;;;;;5110964;27;61832;-80
2024/01/27 13:54:19;;;;;;;;;10.00;3.50;;;;;;;;5112573;27;61992;-81
2024/01/27 13:56:45;;;;;;;;;9.00;4.25;;;;;;;;5112251;27;63861;-79
2024/01/27 13:59:16;;;;;;;;;5.25;3.00;;;;;;;;5111443;27;61934;-82
2024/01/27 14:01:42;;;;;;;;;6.00;3.00;;;;;;;;5111374;27;61736;-75
2024/01/27 14:04:08;;;;;;;;;4.00;1.50;;;;;;;;5114365;27;61873;-75
2024/01/27 14:06:33;;;;;;;;;3.00;1.25;;;;;;;;5109754;27;64836;-74
2024/01/27 14:08:59;;;;;;;;;6.50;5.00;;;;;;;;5113217;27;61807;-76
2024/01/27 14:11:24;;;;;;;;;8.25;5.75;;;;;;;;5119446;27;61729;-79